Time;durP1;ratioP1;P1;durP2;ratioP2;P2;SDS_P1;SDS_P2;PMS_P1;PMS_P2;Temp;Humidity;BMP_temperature;BMP_pressure;BME280_temperature;BME280_humidity;BME280_pressure;Samples;Min_cycle;Max_cycle;Signal;HPM_P1;HPM_P2
2022/05/08 00:01:20;;;;;;;9.85;7.38;;;;;;;13.37;76.58;100344.19;12178104;19;20062;-83
2022/05/08 00:05:24;;;;;;;9.48;7.00;;;;;;;13.33;77.36;100334.75;12204123;19;20021;-83
2022/05/08 00:09:35;;;;;;;11.10;7.32;;;;;;;13.31;78.25;100348.00;12196721;19;20014;-84
2022/05/08 00:13:37;;;;;;;10.57;6.80;;;;;;;13.31;78.00;100336.94;12168463;19;20027;-83
2022/05/08 00:17:38;;;;;;;9.80;7.03;;;;;;;13.29;78.68;100328.84;12199703;19;20075;-83
2022/05/08 00:21:40;;;;;;;12.98;9.30;;;;;;;13.27;79.42;100330.22;12199914;19;20022;-84
2022/05/08 00:25:43;;;;;;;10.90;8.38;;;;;;;13.32;79.48;100331.13;12183729;19;20374;-82
2022/05/08 00:29:45;;;;;;;9.07;6.75;;;;;;;13.35;78.46;100327.84;12195436;19;20081;-82
2022/05/08 00:34:25;;;;;;;10.10;7.97;;;;;;;13.37;78.31;100325.66;12190310;19;20089;-82
2022/05/08 00:39:00;;;;;;;11.57;7.30;;;;;;;13.34;77.97;100328.09;12075202;19;2004466;-83
2022/05/08 00:43:38;;;;;;;13.18;7.68;;;;;;;13.33;78.33;100323.69;12194905;19;20070;-82
2022/05/08 00:48:24;;;;;;;11.07;7.68;;;;;;;13.34;78.23;100330.88;12191487;19;20006;-82
2022/05/08 00:53:10;;;;;;;9.65;7.63;;;;;;;13.28;78.37;100327.19;12178062;19;20007;-82
2022/05/08 00:57:24;;;;;;;10.07;7.15;;;;;;;13.18;78.83;100322.31;12187676;19;20014;-83
2022/05/08 01:02:03;;;;;;;9.73;7.22;;;;;;;13.06;79.72;100317.97;12172627;19;20444;-82
2022/05/08 01:06:17;;;;;;;13.38;7.78;;;;;;;12.91;80.91;100324.09;12194150;19;20011;-84
2022/05/08 01:10:19;;;;;;;11.75;7.78;;;;;;;12.81;81.62;100327.56;12169519;19;20738;-83
2022/05/08 01:14:22;;;;;;;10.30;7.72;;;;;;;12.75;81.64;100325.81;12185469;19;20772;-82
2022/05/08 01:18:25;;;;;;;11.00;7.85;;;;;;;12.69;82.35;100318.50;12199077;19;20815;-82
2022/05/08 01:22:31;;;;;;;9.90;7.00;;;;;;;12.67;82.05;100315.16;12166015;19;20487;-82
2022/05/08 01:26:34;;;;;;;11.43;7.80;;;;;;;12.62;82.80;100310.38;12185921;19;20789;-83
2022/05/08 01:30:44;;;;;;;9.43;7.70;;;;;;;12.58;82.95;100316.66;12189378;19;20039;-83
2022/05/08 02:04:37;;;;;;;13.40;9.25;;;;;;;12.27;85.29;100316.97;12190519;19;51930;-81
2022/05/08 02:08:40;;;;;;;14.88;7.90;;;;;;;12.22;85.64;100329.84;12205703;19;20017;-82
2022/05/08 02:12:44;;;;;;;13.18;8.40;;;;;;;12.13;86.48;100326.66;12201116;19;20014;-82
2022/05/08 02:16:45;;;;;;;10.75;7.80;;;;;;;12.05;86.91;100332.59;12187436;19;20011;-81
2022/05/08 02:20:47;;;;;;;16.33;8.88;;;;;;;11.94;87.32;100325.19;12210754;19;20633;-81
2022/05/08 02:24:50;;;;;;;11.60;8.45;;;;;;;11.88;87.95;100323.41;12205583;19;20015;-81
2022/05/08 02:28:51;;;;;;;12.25;9.13;;;;;;;11.80;88.67;100319.91;12184036;19;20011;-81
2022/05/08 02:32:53;;;;;;;14.15;9.27;;;;;;;11.71;88.48;100320.53;12197142;19;20370;-80
2022/05/08 02:36:55;;;;;;;14.48;8.52;;;;;;;11.63;89.29;100321.78;12176156;19;20017;-79
2022/05/08 02:40:57;;;;;;;16.45;11.35;;;;;;;11.55;91.30;100319.41;12207219;19;20031;-80
2022/05/08 02:45:00;;;;;;;13.07;9.65;;;;;;;11.51;91.14;100324.56;12209942;19;20006;-81
2022/05/08 02:49:02;;;;;;;12.45;8.98;;;;;;;11.48;91.66;100329.72;12184204;19;20505;-80
2022/05/08 02:53:03;;;;;;;16.95;10.02;;;;;;;11.44;92.50;100321.09;12194069;19;20003;-80
2022/05/08 03:01:27;;;;;;;18.15;11.15;;;;;;;11.45;92.37;100333.84;12176374;19;20014;-81
2022/05/08 03:05:33;;;;;;;16.98;10.15;;;;;;;11.49;92.61;100337.78;12200059;19;20038;-80
2022/05/08 03:09:35;;;;;;;17.15;11.60;;;;;;;11.51;93.20;100340.28;12207530;19;20663;-80
2022/05/08 03:13:41;;;;;;;18.70;11.65;;;;;;;11.50;93.01;100336.69;12173183;19;20015;-80
2022/05/08 03:18:10;;;;;;;15.15;10.32;;;;;;;11.48;92.76;100332.47;12202767;19;20125;-80
2022/05/08 03:22:20;;;;;;;14.32;10.25;;;;;;;11.43;93.54;100346.19;12188366;19;20002;-80
2022/05/08 03:26:24;;;;;;;20.42;11.50;;;;;;;11.38;93.36;100342.22;12202398;19;20081;-81
2022/05/08 03:30:28;;;;;;;17.73;11.30;;;;;;;11.37;93.43;100340.56;12206246;19;20020;-79
2022/05/08 03:34:31;;;;;;;16.92;10.75;;;;;;;11.37;94.29;100348.00;12201826;19;20811;-81
2022/05/08 03:38:43;;;;;;;16.60;11.00;;;;;;;11.34;94.27;100352.06;12203030;19;20031;-82
2022/05/08 03:42:45;;;;;;;15.93;11.55;;;;;;;11.31;95.39;100360.00;12214380;19;20090;-81
2022/05/08 03:46:47;;;;;;;22.40;13.60;;;;;;;11.27;95.96;100361.53;12183293;19;20013;-81
2022/05/08 03:50:49;;;;;;;20.65;11.50;;;;;;;11.25;97.15;100360.97;12206103;19;20011;-80
2022/05/08 03:54:51;;;;;;;18.92;11.07;;;;;;;11.22;97.12;100367.78;12191729;19;20003;-80
2022/05/08 03:58:52;;;;;;;15.10;11.00;;;;;;;11.20;97.05;100367.19;12205457;19;20618;-80
2022/05/08 04:02:54;;;;;;;18.85;11.85;;;;;;;11.17;97.33;100365.75;12201923;19;20003;-80
2022/05/08 04:06:56;;;;;;;17.27;12.37;;;;;;;11.16;98.45;100360.50;12187398;19;20015;-80
2022/05/08 04:10:58;;;;;;;18.00;11.00;;;;;;;11.18;98.78;100381.25;12189999;19;20010;-80
2022/05/08 04:14:59;;;;;;;19.25;11.80;;;;;;;11.18;98.35;100377.63;12197864;19;20014;-81
2022/05/08 04:19:06;;;;;;;20.40;12.25;;;;;;;11.16;99.90;100371.53;12162863;19;21472;-81
2022/05/08 04:27:28;;;;;;;18.52;12.38;;;;;;;11.20;100.00;100378.22;12198566;19;20377;-81
2022/05/08 04:31:30;;;;;;;18.27;11.70;;;;;;;11.24;99.82;100373.91;12167187;19;20010;-80
2022/05/08 04:35:38;;;;;;;17.52;12.13;;;;;;;11.25;100.00;100381.09;12190378;19;20467;-80
2022/05/08 04:39:43;;;;;;;21.42;12.68;;;;;;;11.29;100.00;100386.97;12191541;19;20122;-80
2022/05/08 04:43:45;;;;;;;20.00;11.93;;;;;;;11.34;100.00;100385.19;12160574;19;20003;-81
2022/05/08 04:47:47;;;;;;;17.17;11.73;;;;;;;11.34;100.00;100385.19;12195378;19;20014;-81
2022/05/08 04:51:55;;;;;;;18.27;13.48;;;;;;;11.41;100.00;100394.16;12200045;19;20074;-81
2022/05/08 04:55:59;;;;;;;18.13;11.48;;;;;;;11.45;100.00;100396.44;12176008;19;20015;-82
2022/05/08 05:00:01;;;;;;;16.35;10.88;;;;;;;11.47;100.00;100395.13;12193622;19;20086;-80
2022/05/08 05:04:04;;;;;;;23.35;11.60;;;;;;;11.50;100.00;100408.44;12181658;19;20114;-81
2022/05/08 05:08:06;;;;;;;18.17;12.00;;;;;;;11.56;100.00;100404.72;12188657;19;20121;-81
2022/05/08 05:12:09;;;;;;;16.07;11.73;;;;;;;11.58;100.00;100407.25;12201223;19;20027;-82
2022/05/08 05:16:10;;;;;;;14.05;10.02;;;;;;;11.63;99.86;100413.72;12169989;19;22533;-82
2022/05/08 05:20:12;;;;;;;18.65;11.43;;;;;;;11.68;100.00;100424.00;12194413;19;20006;-80
2022/05/08 05:24:14;;;;;;;20.38;11.55;;;;;;;11.74;99.71;100422.22;12203839;19;20006;-81
2022/05/08 05:28:19;;;;;;;15.48;10.07;;;;;;;11.78;99.88;100429.78;12169309;19;20023;-80
2022/05/08 05:32:22;;;;;;;19.00;10.25;;;;;;;11.82;100.00;100432.88;12223329;19;20003;-80
2022/05/08 05:36:24;;;;;;;17.50;10.30;;;;;;;11.90;100.00;100426.16;12229076;19;20014;-80
2022/05/08 05:40:26;;;;;;;17.70;11.98;;;;;;;11.95;99.57;100423.50;12232289;19;20010;-80
2022/05/08 05:44:28;;;;;;;18.23;10.93;;;;;;;11.96;100.00;100428.81;12232330;19;20045;-80
2022/05/08 05:48:29;;;;;;;15.98;10.57;;;;;;;12.08;100.00;100439.84;12244639;19;20003;-81
2022/05/08 05:52:34;;;;;;;16.55;9.60;;;;;;;12.16;100.00;100439.41;12200016;19;20010;-81
2022/05/08 05:56:39;;;;;;;15.75;10.63;;;;;;;12.27;99.30;100446.00;12240863;19;20006;-81
2022/05/08 06:00:40;;;;;;;18.63;10.80;;;;;;;12.35;100.00;100450.31;12242136;19;20039;-79
2022/05/08 06:04:48;;;;;;;16.88;9.90;;;;;;;12.45;99.74;100454.09;12214054;19;20010;-80
2022/05/08 06:08:50;;;;;;;12.27;9.18;;;;;;;12.62;98.98;100451.41;12221720;19;20071;-81
2022/05/08 06:12:51;;;;;;;13.45;9.05;;;;;;;12.78;97.85;100453.34;12196484;19;20108;-82
2022/05/08 06:16:54;;;;;;;17.92;8.50;;;;;;;12.81;98.93;100460.31;12200965;19;20003;-82
2022/05/08 06:20:56;;;;;;;13.27;8.52;;;;;;;12.97;98.31;100461.44;12212114;19;20011;-80
2022/05/08 06:24:58;;;;;;;12.65;8.45;;;;;;;13.14;97.29;100461.44;12187131;19;20019;-81
2022/05/08 06:29:00;;;;;;;12.90;8.27;;;;;;;13.36;96.26;100472.63;12216013;19;20090;-80
2022/05/08 06:33:02;;;;;;;11.60;8.05;;;;;;;13.54;94.79;100472.38;12211020;19;20010;-82
2022/05/08 06:37:11;;;;;;;10.32;6.93;;;;;;;13.66;94.14;100463.97;12195210;19;20015;-82
2022/05/08 06:41:13;;;;;;;13.93;7.30;;;;;;;13.86;93.35;100474.47;12204660;19;20010;-83
2022/05/08 06:45:17;;;;;;;;;;;;;;;13.96;92.18;100468.25;12194627;19;20014;-82
2022/05/08 06:49:23;;;;;;;9.50;7.32;;;;;;;14.14;91.03;100473.47;12185515;19;20304;-82
2022/05/08 06:53:26;;;;;;;9.70;6.28;;;;;;;14.35;90.36;100474.56;12208096;19;20027;-81
2022/05/08 06:57:28;;;;;;;10.55;6.40;;;;;;;14.68;88.87;100475.53;12213084;19;20039;-83
2022/05/08 07:01:41;;;;;;;12.10;6.45;;;;;;;15.07;87.82;100478.97;12184859;19;20323;-81
2022/05/08 07:05:45;;;;;;;10.55;5.95;;;;;;;15.41;85.50;100475.97;12196894;19;20014;-81
2022/05/08 07:09:47;;;;;;;12.57;5.90;;;;;;;15.62;83.19;100483.31;12220487;19;20049;-81
2022/05/08 07:13:51;;;;;;;6.72;5.20;;;;;;;15.92;82.62;100488.28;12170465;19;20009;-80
2022/05/08 07:17:53;;;;;;;7.88;5.40;;;;;;;16.20;80.78;100488.97;12207867;19;20007;-80
2022/05/08 07:21:55;;;;;;;9.30;5.53;;;;;;;16.44;80.26;100488.53;12186935;19;20006;-80
2022/05/08 07:25:57;;;;;;;8.30;4.80;;;;;;;16.61;79.48;100495.53;12212728;19;20097;-80
2022/05/08 07:29:59;;;;;;;6.63;4.50;;;;;;;16.80;78.51;100493.09;12219197;19;20018;-80
2022/05/08 07:38:22;;;;;;;10.77;5.72;;;;;;;17.16;76.22;100486.75;12200067;19;20614;-81
2022/05/08 07:42:24;;;;;;;7.97;5.53;;;;;;;17.29;74.72;100489.03;12212111;19;20062;-80
2022/05/08 07:46:26;;;;;;;9.02;5.05;;;;;;;17.36;74.71;100489.56;12181867;19;20037;-81
2022/05/08 07:50:28;;;;;;;9.02;4.78;;;;;;;17.48;73.58;100489.28;12210113;19;20374;-81
2022/05/08 07:54:30;;;;;;;9.95;5.05;;;;;;;17.69;73.50;100493.72;12208041;19;20559;-80
2022/05/08 07:58:32;;;;;;;7.55;4.47;;;;;;;17.86;72.99;100495.41;12180276;19;20010;-81
2022/05/08 08:06:48;;;;;;;7.28;4.38;;;;;;;18.12;70.68;100494.22;12204432;19;20364;-82
2022/05/08 08:10:52;;;;;;;7.85;5.38;;;;;;;18.11;69.66;100505.66;12179530;19;20018;-81
2022/05/08 08:14:54;;;;;;;9.13;5.22;;;;;;;18.26;69.46;100502.00;12209098;19;20551;-80
2022/05/08 08:18:58;;;;;;;7.93;5.22;;;;;;;18.42;68.46;100498.88;12180511;19;20023;-81
2022/05/08 08:23:03;;;;;;;8.52;4.72;;;;;;;18.50;69.25;100503.03;12209193;19;20003;-81
2022/05/08 08:31:53;;;;;;;8.27;4.72;;;;;;;18.87;67.20;100515.72;12192309;19;20021;-83
2022/05/08 08:35:56;;;;;;;6.83;4.67;;;;;;;18.98;66.95;100519.28;12208700;19;20500;-84
2022/05/08 08:40:04;;;;;;;6.95;5.07;;;;;;;19.26;66.37;100514.88;12180271;19;20081;-83
2022/05/08 08:48:34;;;;;;;9.00;5.40;;;;;;;19.72;62.22;100517.31;12211152;19;20021;-81
2022/05/08 08:52:36;;;;;;;6.45;4.13;;;;;;;20.08;62.52;100511.38;12184741;19;20492;-81
2022/05/08 08:56:38;;;;;;;6.32;4.07;;;;;;;20.22;60.14;100518.75;12181671;19;20027;-80
2022/05/08 09:00:39;;;;;;;7.13;4.50;;;;;;;20.45;59.31;100508.69;12196680;19;20078;-79
2022/05/08 09:04:44;;;;;;;7.17;4.50;;;;;;;20.64;59.00;100519.13;12170665;19;20042;-81
2022/05/08 09:08:47;;;;;;;7.55;3.90;;;;;;;20.79;57.99;100518.09;12196604;19;20735;-81
2022/05/08 09:12:54;;;;;;;7.20;4.30;;;;;;;20.71;58.34;100522.41;12170961;19;20007;-80
2022/05/08 09:16:56;;;;;;;10.40;4.75;;;;;;;20.99;57.62;100520.63;12197923;19;20081;-80
2022/05/08 09:21:54;;;;;;;8.13;4.50;;;;;;;21.20;56.83;100517.50;12198402;19;20028;-79
2022/05/08 09:25:23;;;;;;;6.75;4.13;;;;;;;21.08;57.20;100513.19;12166067;19;20010;-80
2022/05/08 09:29:25;;;;;;;6.75;4.57;;;;;;;21.16;57.08;100523.72;12195652;19;20010;-81
2022/05/08 09:33:41;;;;;;;5.47;4.72;;;;;;;21.40;54.87;100522.84;12202828;19;20082;-81
2022/05/08 09:37:53;;;;;;;7.18;4.85;;;;;;;21.27;55.91;100518.81;12186089;19;20015;-81
2022/05/08 09:42:07;;;;;;;6.05;4.38;;;;;;;21.41;55.43;100512.44;12204558;19;20011;-81
2022/05/08 09:46:23;;;;;;;6.97;4.80;;;;;;;21.31;54.99;100511.44;12183627;19;20642;-82
2022/05/08 09:50:49;;;;;;;5.85;3.97;;;;;;;21.65;55.71;100504.72;12198410;19;20029;-81
2022/05/08 09:54:51;;;;;;;6.15;4.78;;;;;;;21.90;54.14;100508.25;12195883;19;20028;-80
2022/05/08 09:59:03;;;;;;;7.15;4.90;;;;;;;21.93;52.74;100508.44;12183250;19;20067;-81
2022/05/08 10:04:03;;;;;;;6.60;5.10;;;;;;;22.01;53.48;100504.94;12203575;19;20461;-82
2022/05/08 10:08:38;;;;;;;8.27;4.47;;;;;;;22.10;52.96;100496.63;12190342;19;20006;-81
2022/05/08 10:18:29;;;;;;;8.18;5.63;;;;;;;22.38;49.90;100496.66;12109707;19;2004280;-81
2022/05/08 10:22:52;;;;;;;6.07;4.57;;;;;;;22.62;49.82;100488.03;12195687;19;20014;-80
2022/05/08 10:27:24;;;;;;;6.03;4.43;;;;;;;22.82;50.24;100489.56;12204684;19;20011;-81
2022/05/08 10:31:51;;;;;;;6.95;4.40;;;;;;;22.95;49.44;100477.47;12184961;19;20015;-82
2022/05/08 10:36:06;;;;;;;5.10;4.22;;;;;;;23.19;47.83;100486.44;12204607;19;20018;-82
2022/05/08 10:40:23;;;;;;;7.60;4.30;;;;;;;23.12;48.65;100476.78;12187312;19;20034;-83
2022/05/08 10:44:40;;;;;;;6.82;4.68;;;;;;;23.21;47.10;100480.50;12192749;19;20050;-82
2022/05/08 10:48:47;;;;;;;7.78;5.05;;;;;;;23.22;47.17;100481.34;12213615;19;20070;-81
2022/05/08 10:52:49;;;;;;;8.50;4.67;;;;;;;23.39;46.43;100471.03;12187751;19;20015;-82
2022/05/08 10:56:59;;;;;;;8.23;4.70;;;;;;;23.24;46.07;100473.41;12216938;19;20007;-82
2022/05/08 11:01:13;;;;;;;6.00;4.17;;;;;;;23.66;45.30;100472.88;12182730;19;20007;-82
2022/05/08 11:05:18;;;;;;;6.38;4.57;;;;;;;23.90;45.19;100462.44;12197515;19;20014;-82
2022/05/08 11:09:21;;;;;;;6.88;4.50;;;;;;;23.85;45.08;100467.03;12204417;19;20003;-82
2022/05/08 11:13:24;;;;;;;12.63;4.90;;;;;;;23.99;45.33;100466.13;12178608;19;20027;-82
2022/05/08 11:17:27;;;;;;;5.82;4.03;;;;;;;23.93;43.67;100461.81;12190931;19;20006;-82
2022/05/08 11:21:30;;;;;;;6.43;4.50;;;;;;;23.20;45.20;100464.78;12207012;19;20006;-82
2022/05/08 11:25:33;;;;;;;8.80;4.97;;;;;;;23.56;45.00;100461.91;12184780;19;20006;-82
2022/05/08 11:29:35;;;;;;;9.30;6.70;;;;;;;24.38;44.19;100451.19;12198105;19;20006;-83
2022/05/08 11:38:03;;;;;;;6.33;4.50;;;;;;;24.44;43.54;100457.53;12183798;19;20011;-82
2022/05/08 11:42:05;;;;;;;9.65;5.30;;;;;;;24.40;43.57;100448.06;12203289;19;20043;-83
2022/05/08 11:46:12;;;;;;;9.65;4.63;;;;;;;25.37;41.84;100448.69;12181220;19;20070;-83
2022/05/08 11:50:16;;;;;;;5.18;4.10;;;;;;;26.64;38.40;100439.59;12206279;19;20007;-82
2022/05/08 11:54:32;;;;;;;6.50;4.65;;;;;;;27.81;35.02;100441.56;12198740;19;20034;-83
2022/05/08 11:58:38;;;;;;;7.00;4.90;;;;;;;27.65;35.34;100428.06;12184756;19;20086;-83
2022/05/08 12:02:46;;;;;;;7.25;4.28;;;;;;;27.37;36.23;100435.53;12204967;19;20476;-83
2022/05/08 12:07:13;;;;;;;8.45;4.40;;;;;;;28.60;34.47;100434.53;12180760;19;20031;-84
2022/05/08 12:11:33;;;;;;;5.72;4.10;;;;;;;29.67;32.56;100433.25;12198887;19;20006;-84
2022/05/08 12:15:35;;;;;;;5.60;4.55;;;;;;;29.82;32.50;100423.13;12194060;19;20014;-84
2022/05/08 12:19:36;;;;;;;6.15;5.28;;;;;;;28.87;33.17;100417.94;12179791;19;20006;-83
2022/05/08 12:23:44;;;;;;;5.43;4.93;;;;;;;28.28;33.15;100416.47;12208210;19;20404;-84
2022/05/08 12:27:52;;;;;;;8.13;5.00;;;;;;;28.98;32.54;100416.25;12192602;19;20002;-84
2022/05/08 12:31:54;;;;;;;5.63;4.30;;;;;;;28.49;33.64;100419.19;12182901;19;20007;-84
2022/05/08 12:35:56;;;;;;;5.75;4.32;;;;;;;27.49;34.70;100418.59;12192159;19;20014;-83
2022/05/08 12:39:57;;;;;;;9.52;5.25;;;;;;;26.68;35.94;100403.81;12174759;19;20027;-83
2022/05/08 12:44:00;;;;;;;9.85;5.38;;;;;;;26.47;37.21;100417.06;12198159;19;20039;-81
2022/05/08 12:48:02;;;;;;;5.97;4.78;;;;;;;27.92;35.04;100418.09;12200919;19;20017;-81
2022/05/08 12:52:07;;;;;;;6.82;4.90;;;;;;;27.83;34.15;100413.72;12173970;19;20014;-82
2022/05/08 12:56:09;;;;;;;9.30;5.88;;;;;;;26.68;35.89;100408.63;12195171;19;20007;-82
2022/05/08 13:00:12;;;;;;;7.65;5.38;;;;;;;25.58;37.82;100414.09;12197627;19;20082;-82
2022/05/08 13:04:19;;;;;;;8.20;4.68;;;;;;;24.81;39.82;100411.03;12174988;19;20484;-83
2022/05/08 13:08:44;;;;;;;6.50;4.88;;;;;;;24.39;40.99;100418.22;12181215;19;20031;-82
2022/05/08 13:13:27;;;;;;;7.57;4.47;;;;;;;24.07;42.51;100412.69;12170116;19;20085;-82
2022/05/08 13:17:32;;;;;;;7.15;4.40;;;;;;;23.96;42.19;100419.75;12195457;19;20014;-81
2022/05/08 13:26:18;;;;;;;6.85;5.00;;;;;;;24.33;42.41;100403.47;12182379;19;20011;-82
2022/05/08 13:30:25;;;;;;;11.13;5.07;;;;;;;25.46;42.24;100409.16;12193402;19;20011;-83
2022/05/08 13:34:30;;;;;;;6.90;4.83;;;;;;;24.48;44.92;100425.59;12175679;19;20018;-83
2022/05/08 13:38:32;;;;;;;9.23;6.40;;;;;;;23.50;50.16;100429.44;12199261;19;20028;-85
2022/05/08 13:42:33;;;;;;;11.87;6.57;;;;;;;22.45;54.48;100427.69;12197776;19;20030;-83
2022/05/08 13:46:36;;;;;;;17.38;7.18;;;;;;;21.70;58.63;100426.13;12170559;19;20018;-82
2022/05/08 13:50:39;;;;;;;;;;;;;;;20.99;64.74;100425.34;12194937;19;20073;-82
2022/05/08 13:54:42;;;;;;;8.00;6.63;;;;;;;20.54;66.10;100424.09;12189390;19;19931;-83
2022/05/08 13:58:44;;;;;;;9.90;7.80;;;;;;;20.10;69.14;100422.38;12178699;19;20039;-83
2022/05/08 14:02:45;;;;;;;10.03;7.27;;;;;;;19.81;71.00;100423.31;12203670;19;20017;-83
2022/05/08 14:06:49;;;;;;;8.97;7.10;;;;;;;19.67;71.54;100419.53;12191400;19;20066;-83
2022/05/08 14:10:51;;;;;;;11.75;7.65;;;;;;;19.51;75.31;100430.00;12172407;19;20002;-84
2022/05/08 14:14:53;;;;;;;8.13;6.88;;;;;;;19.42;77.10;100417.78;12183915;19;20014;-84
2022/05/08 14:18:55;;;;;;;7.95;6.25;;;;;;;19.39;77.09;100407.19;12180007;19;20007;-84
2022/05/08 14:22:57;;;;;;;7.13;5.65;;;;;;;19.35;76.78;100409.75;12197226;19;20062;-84
2022/05/08 14:26:59;;;;;;;9.23;6.68;;;;;;;19.16;76.73;100414.41;12192749;19;20031;-83
2022/05/08 14:39:42;;;;;;;9.85;5.40;;;;;;;18.66;79.14;100418.06;12190174;19;20007;-83
2022/05/08 14:43:46;;;;;;;7.60;5.03;;;;;;;18.61;79.31;100408.91;12174687;19;20638;-83
2022/05/08 14:47:47;;;;;;;7.68;5.35;;;;;;;18.51;80.81;100412.59;12198317;19;20353;-83
2022/05/08 14:51:49;;;;;;;9.45;4.95;;;;;;;18.52;81.50;100411.47;12204563;19;20010;-82
2022/05/08 14:55:51;;;;;;;6.63;4.67;;;;;;;18.49;80.08;100426.00;12181965;19;20783;-84
2022/05/08 14:59:52;;;;;;;8.23;4.70;;;;;;;18.59;79.80;100425.94;12203292;19;20007;-83
2022/05/08 15:03:54;;;;;;;7.75;5.10;;;;;;;18.68;79.25;100418.63;12181042;19;20011;-84
2022/05/08 15:07:57;;;;;;;6.47;4.00;;;;;;;18.63;78.64;100415.88;12207491;19;20456;-84
2022/05/08 15:11:58;;;;;;;5.68;3.70;;;;;;;18.73;76.43;100420.56;12202773;19;20089;-84
2022/05/08 15:16:00;;;;;;;4.30;3.17;;;;;;;18.92;75.12;100420.72;12171074;19;20006;-84
2022/05/08 15:20:02;;;;;;;6.72;3.25;;;;;;;19.08;74.27;100421.44;12207131;19;20464;-85
2022/05/08 15:24:04;;;;;;;5.40;2.80;;;;;;;19.12;71.61;100414.97;12202639;19;20011;-85
2022/05/08 15:28:05;;;;;;;5.47;2.63;;;;;;;19.06;70.83;100415.31;12183729;19;20082;-84
2022/05/08 15:32:09;;;;;;;6.07;3.55;;;;;;;19.10;72.98;100411.66;12199298;19;20030;-83
2022/05/08 15:36:11;;;;;;;3.60;2.70;;;;;;;19.13;70.51;100416.66;12200346;19;20038;-82
2022/05/08 15:40:14;;;;;;;4.50;3.17;;;;;;;19.11;71.07;100407.72;12189497;19;20058;-82
2022/05/08 15:44:15;;;;;;;;;;;;;;;18.97;71.36;100408.69;12210534;19;20010;-83
2022/05/08 15:48:22;;;;;;;6.88;3.17;;;;;;;18.96;73.65;100416.22;12200514;19;19914;-83
2022/05/08 15:52:24;;;;;;;5.83;3.67;;;;;;;18.97;76.25;100412.28;12181266;19;20322;-82
2022/05/08 15:56:26;;;;;;;4.60;3.22;;;;;;;18.92;75.16;100417.09;12201538;19;20082;-82
2022/05/08 16:00:29;;;;;;;7.15;4.03;;;;;;;19.01;75.17;100421.78;12193601;19;20007;-83
2022/05/08 16:04:31;;;;;;;7.25;3.72;;;;;;;19.10;76.05;100422.81;12178284;19;20027;-83
2022/05/08 16:08:35;;;;;;;7.18;4.88;;;;;;;19.09;73.69;100421.13;12204116;19;20022;-82
2022/05/08 16:25:44;;;;;;;6.32;4.32;;;;;;;19.22;70.92;100425.25;12178224;19;20070;-82
2022/05/08 16:29:46;;;;;;;4.78;3.60;;;;;;;19.32;71.00;100425.13;12199373;19;20021;-82
2022/05/08 16:33:49;;;;;;;4.70;3.67;;;;;;;19.41;69.67;100427.31;12204273;19;20454;-82
2022/05/08 16:38:33;;;;;;;5.57;3.70;;;;;;;19.44;68.99;100427.53;12184181;19;20034;-80
2022/05/08 16:44:06;;;;;;;5.82;4.40;;;;;;;19.44;67.34;100427.53;12198346;19;20098;-80
2022/05/08 16:54:47;;;;;;;5.45;3.85;;;;;;;19.44;68.75;100424.75;12214648;19;20021;-81
2022/05/08 17:09:29;;;;;;;6.75;4.00;;;;;;;19.18;69.72;100426.09;12216663;19;20089;-81
2022/05/08 17:14:59;;;;;;;6.65;4.22;;;;;;;19.15;68.66;100423.88;12135870;19;20576;-81
2022/05/08 17:35:55;;;;;;;8.38;3.90;;;;;;;19.12;69.03;100431.72;12197450;19;20110;-79
2022/05/08 17:40:35;;;;;;;8.50;4.40;;;;;;;19.06;68.80;100424.50;12262164;19;20381;-80
2022/05/08 17:44:49;;;;;;;6.68;4.50;;;;;;;19.01;69.82;100426.53;12257917;19;20017;-80
2022/05/08 17:48:51;;;;;;;8.50;5.03;;;;;;;19.01;70.67;100434.91;12258316;19;20082;-79
2022/05/08 17:52:52;;;;;;;7.78;4.75;;;;;;;19.20;67.95;100423.84;12238418;19;20010;-82
2022/05/08 17:56:54;;;;;;;7.73;4.63;;;;;;;19.07;68.24;100431.78;12263014;19;20007;-82
2022/05/08 18:00:57;;;;;;;6.53;4.45;;;;;;;18.97;69.71;100433.81;12238914;19;20455;-82
2022/05/08 18:09:29;;;;;;;7.73;5.27;;;;;;;18.67;71.00;100439.28;12260787;19;20010;-83
2022/05/08 18:13:32;;;;;;;6.90;4.07;;;;;;;18.56;70.08;100440.47;12239970;19;20010;-85
2022/05/08 18:17:38;;;;;;;7.22;4.70;;;;;;;18.41;71.88;100440.53;12261581;19;20023;-83
2022/05/08 18:21:40;;;;;;;9.10;4.95;;;;;;;18.22;72.07;100441.19;12274062;19;20085;-84
2022/05/08 18:25:42;;;;;;;9.07;6.10;;;;;;;18.07;72.19;100448.78;12245527;19;20029;-84
2022/05/08 18:29:44;;;;;;;6.93;4.53;;;;;;;17.85;73.98;100454.72;12257767;19;20007;-84
2022/05/08 18:33:47;;;;;;;7.35;4.70;;;;;;;17.57;75.27;100453.34;12264609;19;20045;-85
2022/05/08 18:37:48;;;;;;;;;;;;;;;17.23;77.88;100460.31;12238728;19;20007;-84
2022/05/08 18:41:50;;;;;;;10.35;5.38;;;;;;;16.99;78.51;100462.00;12259346;19;19909;-83
2022/05/08 18:45:52;;;;;;;8.13;5.53;;;;;;;16.73;80.51;100470.25;12253393;19;20015;-85
2022/05/08 18:49:55;;;;;;;6.67;5.33;;;;;;;16.48;82.22;100471.03;12235975;19;20066;-85
2022/05/08 18:53:56;;;;;;;;;;;;;;;16.23;83.31;100480.09;12211246;19;20065;-84
2022/05/08 18:57:58;;;;;;;9.38;5.25;;;;;;;16.00;83.57;100477.75;12195051;19;19911;-84
2022/05/08 19:02:00;;;;;;;8.27;5.88;;;;;;;15.81;85.43;100489.31;12223316;19;20903;-85
2022/05/08 19:06:02;;;;;;;9.82;6.03;;;;;;;15.61;86.58;100491.91;12211414;19;20010;-84
2022/05/08 19:10:04;;;;;;;11.20;6.17;;;;;;;15.39;88.32;100495.66;12191594;19;20009;-84
2022/05/08 19:14:09;;;;;;;;;;;;;;;15.19;90.19;100504.63;12205644;19;20010;-84
2022/05/08 19:18:10;;;;;;;11.15;6.25;;;;;;;15.04;90.38;100501.72;12206981;19;19927;-83
2022/05/08 19:22:14;;;;;;;12.90;7.28;;;;;;;14.90;92.09;100504.09;12201463;19;20033;-83
2022/05/08 19:26:16;;;;;;;8.93;6.22;;;;;;;14.78;92.76;100512.56;12206849;19;20010;-84
2022/05/08 19:30:20;;;;;;;11.70;7.25;;;;;;;14.68;94.23;100514.38;12213519;19;20018;-84
2022/05/08 19:38:44;;;;;;;10.20;6.80;;;;;;;14.54;95.33;100522.25;12217115;19;20013;-85
2022/05/08 19:42:48;;;;;;;9.50;7.30;;;;;;;14.48;96.43;100537.13;12212999;19;20017;-85
2022/05/08 19:47:12;;;;;;;10.73;7.13;;;;;;;14.42;95.91;100533.44;12191542;19;20006;-84
2022/05/08 19:51:12;;;;;;;9.53;7.17;;;;;;;14.39;95.89;100530.34;12206268;19;20015;-82
2022/05/08 19:55:13;;;;;;;12.52;7.53;;;;;;;14.36;95.97;100548.31;12179165;19;20069;-81
2022/05/08 19:59:18;;;;;;;15.18;7.85;;;;;;;14.34;96.42;100556.09;12204905;19;20010;-81
2022/05/08 20:03:22;;;;;;;12.20;7.43;;;;;;;14.35;95.44;100557.75;12201931;19;20023;-81
2022/05/08 20:07:26;;;;;;;11.70;7.90;;;;;;;14.36;96.11;100556.66;12179481;19;20006;-84
2022/05/08 20:11:27;;;;;;;9.35;7.50;;;;;;;14.32;97.01;100561.03;12204421;19;20015;-84
2022/05/08 20:15:30;;;;;;;11.98;7.82;;;;;;;14.35;97.48;100554.97;12203821;19;20010;-84
2022/05/08 20:19:33;;;;;;;11.25;7.97;;;;;;;14.37;97.08;100558.34;12178940;19;20606;-84
2022/05/08 20:23:34;;;;;;;10.27;7.45;;;;;;;14.39;97.36;100564.44;12208538;19;20023;-83
2022/05/08 20:27:36;;;;;;;13.10;7.65;;;;;;;14.38;96.67;100568.31;12199714;19;20011;-83
2022/05/08 20:31:38;;;;;;;10.13;8.32;;;;;;;14.35;96.62;100572.44;12174761;19;20604;-83
2022/05/08 20:35:40;;;;;;;15.93;8.23;;;;;;;14.38;97.30;100576.66;12199741;19;20003;-83
2022/05/08 20:39:42;;;;;;;11.00;7.18;;;;;;;14.39;96.72;100575.53;12210212;19;20010;-83
2022/05/08 20:43:43;;;;;;;10.65;8.27;;;;;;;14.39;97.55;100570.00;12189062;19;20491;-80
2022/05/08 20:47:45;;;;;;;10.65;7.95;;;;;;;14.45;96.81;100580.06;12205328;19;20497;-80
2022/05/08 20:51:47;;;;;;;13.18;8.43;;;;;;;14.46;96.70;100583.69;12208885;19;20033;-80
2022/05/08 20:55:49;;;;;;;16.20;8.48;;;;;;;14.48;95.98;100581.47;12180164;19;20139;-83
2022/05/08 20:59:51;;;;;;;11.75;8.00;;;;;;;14.48;96.83;100587.03;12204291;19;20090;-83
2022/05/08 21:03:53;;;;;;;16.95;8.27;;;;;;;14.44;96.47;100581.16;12195700;19;20070;-83